sensor_id;sensor_type;location;lat;lon;timestamp;pressure;altitude;pressure_sealevel;temperature;humidity
53246;BME280;39569;51.090;-1.786;2024-03-25T00:00:34;100064.72;;;15.50;42.63
53246;BME280;39569;51.090;-1.786;2024-03-25T00:03:01;100054.56;;;15.89;42.24
53246;BME280;39569;51.090;-1.786;2024-03-25T00:05:28;100058.13;;;15.64;41.86
53246;BME280;39569;51.090;-1.786;2024-03-25T00:07:54;100047.53;;;15.88;41.43
53246;BME280;39569;51.090;-1.786;2024-03-25T00:10:21;100051.88;;;15.89;41.87
53246;BME280;39569;51.090;-1.786;2024-03-25T00:12:47;100038.13;;;15.79;41.67
53246;BME280;39569;51.090;-1.786;2024-03-25T00:15:18;100029.16;;;15.85;41.70
53246;BME280;39569;51.090;-1.786;2024-03-25T00:17:45;100026.06;;;15.81;41.60
53246;BME280;39569;51.090;-1.786;2024-03-25T00:20:12;100014.47;;;15.99;41.80
53246;BME280;39569;51.090;-1.786;2024-03-25T00:22:40;100015.09;;;15.83;41.65
53246;BME280;39569;51.090;-1.786;2024-03-25T00:25:06;100022.03;;;15.90;41.69
53246;BME280;39569;51.090;-1.786;2024-03-25T00:27:33;100007.50;;;15.91;41.90
53246;BME280;39569;51.090;-1.786;2024-03-25T00:29:59;100005.47;;;15.87;42.16
53246;BME280;39569;51.090;-1.786;2024-03-25T00:32:26;100006.53;;;15.86;42.19
53246;BME280;39569;51.090;-1.786;2024-03-25T00:34:52;100005.47;;;15.87;41.92
53246;BME280;39569;51.090;-1.786;2024-03-25T00:37:20;100004.72;;;15.98;41.91
53246;BME280;39569;51.090;-1.786;2024-03-25T00:39:45;99997.03;;;16.01;41.33
53246;BME280;39569;51.090;-1.786;2024-03-25T00:42:12;99988.69;;;15.73;42.18
53246;BME280;39569;51.090;-1.786;2024-03-25T00:44:38;99986.25;;;16.01;41.66
53246;BME280;39569;51.090;-1.786;2024-03-25T00:47:05;99976.91;;;15.86;42.11
53246;BME280;39569;51.090;-1.786;2024-03-25T00:49:30;99968.97;;;15.91;42.11
53246;BME280;39569;51.090;-1.786;2024-03-25T00:51:57;99970.41;;;15.93;41.73
53246;BME280;39569;51.090;-1.786;2024-03-25T00:54:24;99964.13;;;16.11;41.69
53246;BME280;39569;51.090;-1.786;2024-03-25T00:56:51;99970.66;;;16.03;41.75
53246;BME280;39569;51.090;-1.786;2024-03-25T00:59:17;99967.34;;;16.19;41.41
53246;BME280;39569;51.090;-1.786;2024-03-25T01:01:44;99961.06;;;16.07;42.03
53246;BME280;39569;51.090;-1.786;2024-03-25T01:04:09;99968.56;;;16.05;41.34
53246;BME280;39569;51.090;-1.786;2024-03-25T01:06:36;99961.19;;;16.01;41.47
53246;BME280;39569;51.090;-1.786;2024-03-25T01:09:02;99954.13;;;16.29;41.11
53246;BME280;39569;51.090;-1.786;2024-03-25T01:11:31;99953.50;;;16.16;41.33
53246;BME280;39569;51.090;-1.786;2024-03-25T01:13:56;99939.03;;;15.99;41.17
53246;BME280;39569;51.090;-1.786;2024-03-25T01:16:23;99933.53;;;16.05;41.36
53246;BME280;39569;51.090;-1.786;2024-03-25T01:18:49;99928.66;;;16.14;40.90
53246;BME280;39569;51.090;-1.786;2024-03-25T01:21:16;99933.63;;;16.28;40.95
53246;BME280;39569;51.090;-1.786;2024-03-25T01:23:41;99931.13;;;16.15;40.84
53246;BME280;39569;51.090;-1.786;2024-03-25T01:26:08;99932.94;;;15.92;40.98
53246;BME280;39569;51.090;-1.786;2024-03-25T01:28:35;99926.28;;;16.06;40.80
53246;BME280;39569;51.090;-1.786;2024-03-25T01:31:02;99930.34;;;15.97;40.99
53246;BME280;39569;51.090;-1.786;2024-03-25T01:33:29;99919.72;;;16.02;40.84
53246;BME280;39569;51.090;-1.786;2024-03-25T01:35:56;99920.94;;;16.17;40.96
53246;BME280;39569;51.090;-1.786;2024-03-25T01:38:22;99903.63;;;15.84;41.31
53246;BME280;39569;51.090;-1.786;2024-03-25T01:40:48;99902.88;;;15.77;41.70
53246;BME280;39569;51.090;-1.786;2024-03-25T01:43:14;99891.69;;;15.91;41.68
53246;BME280;39569;51.090;-1.786;2024-03-25T01:45:42;99891.59;;;15.98;41.40
53246;BME280;39569;51.090;-1.786;2024-03-25T01:48:09;99891.38;;;16.11;41.32
53246;BME280;39569;51.090;-1.786;2024-03-25T01:50:40;99886.47;;;16.08;41.64
53246;BME280;39569;51.090;-1.786;2024-03-25T01:53:06;99879.66;;;16.05;41.53
53246;BME280;39569;51.090;-1.786;2024-03-25T01:55:35;99870.94;;;15.80;42.34
53246;BME280;39569;51.090;-1.786;2024-03-25T01:58:01;99871.59;;;15.64;43.31
53246;BME280;39569;51.090;-1.786;2024-03-25T02:00:28;99863.50;;;15.94;43.08
53246;BME280;39569;51.090;-1.786;2024-03-25T02:02:55;99864.63;;;16.39;41.94
53246;BME280;39569;51.090;-1.786;2024-03-25T02:05:23;99862.63;;;15.82;43.42
53246;BME280;39569;51.090;-1.786;2024-03-25T02:07:49;99864.25;;;16.12;42.56
53246;BME280;39569;51.090;-1.786;2024-03-25T02:10:16;99850.63;;;16.07;42.86
53246;BME280;39569;51.090;-1.786;2024-03-25T02:12:42;99851.56;;;16.01;43.49
53246;BME280;39569;51.090;-1.786;2024-03-25T02:15:09;99844.22;;;16.31;42.95
53246;BME280;39569;51.090;-1.786;2024-03-25T02:17:35;99844.06;;;16.03;43.67
53246;BME280;39569;51.090;-1.786;2024-03-25T02:20:03;99836.72;;;16.22;44.10
53246;BME280;39569;51.090;-1.786;2024-03-25T02:22:30;99828.63;;;16.22;44.14
53246;BME280;39569;51.090;-1.786;2024-03-25T02:24:58;99829.34;;;16.29;44.16
53246;BME280;39569;51.090;-1.786;2024-03-25T02:27:26;99814.59;;;16.20;44.77
53246;BME280;39569;51.090;-1.786;2024-03-25T02:30:01;99817.03;;;16.33;44.87
53246;BME280;39569;51.090;-1.786;2024-03-25T02:32:27;99812.59;;;16.38;44.50
53246;BME280;39569;51.090;-1.786;2024-03-25T02:34:56;99811.09;;;16.31;45.53
53246;BME280;39569;51.090;-1.786;2024-03-25T02:37:22;99803.22;;;16.41;45.41
53246;BME280;39569;51.090;-1.786;2024-03-25T02:39:49;99794.66;;;16.44;45.66
53246;BME280;39569;51.090;-1.786;2024-03-25T02:42:15;99796.50;;;15.86;47.28
53246;BME280;39569;51.090;-1.786;2024-03-25T02:44:43;99785.66;;;16.27;47.01
53246;BME280;39569;51.090;-1.786;2024-03-25T02:47:09;99784.56;;;15.93;47.72
53246;BME280;39569;51.090;-1.786;2024-03-25T02:49:37;99781.75;;;15.88;47.77
53246;BME280;39569;51.090;-1.786;2024-03-25T02:52:03;99785.56;;;15.69;48.70
53246;BME280;39569;51.090;-1.786;2024-03-25T02:54:29;99772.13;;;15.81;48.48
53246;BME280;39569;51.090;-1.786;2024-03-25T02:56:55;99766.75;;;16.04;48.37
53246;BME280;39569;51.090;-1.786;2024-03-25T02:59:22;99764.28;;;15.91;48.65
53246;BME280;39569;51.090;-1.786;2024-03-25T03:01:49;99753.44;;;15.97;49.04
53246;BME280;39569;51.090;-1.786;2024-03-25T03:04:15;99752.31;;;15.63;49.87
53246;BME280;39569;51.090;-1.786;2024-03-25T03:06:41;99746.56;;;15.60;50.37
53246;BME280;39569;51.090;-1.786;2024-03-25T03:09:08;99743.69;;;15.85;49.72
53246;BME280;39569;51.090;-1.786;2024-03-25T03:11:33;99739.81;;;15.81;50.32
53246;BME280;39569;51.090;-1.786;2024-03-25T03:14:00;99732.22;;;15.89;50.04
53246;BME280;39569;51.090;-1.786;2024-03-25T03:16:26;99730.31;;;15.78;50.58
53246;BME280;39569;51.090;-1.786;2024-03-25T03:18:54;99730.53;;;15.65;51.41
53246;BME280;39569;51.090;-1.786;2024-03-25T03:21:19;99729.75;;;15.76;51.03
53246;BME280;39569;51.090;-1.786;2024-03-25T03:23:46;99720.69;;;15.47;51.85
53246;BME280;39569;51.090;-1.786;2024-03-25T03:26:12;99723.16;;;15.72;51.78
53246;BME280;39569;51.090;-1.786;2024-03-25T03:28:39;99720.31;;;15.14;53.20
53246;BME280;39569;51.090;-1.786;2024-03-25T03:31:05;99715.75;;;15.44;52.58
53246;BME280;39569;51.090;-1.786;2024-03-25T03:33:32;99708.78;;;15.66;52.12
53246;BME280;39569;51.090;-1.786;2024-03-25T03:35:59;99696.50;;;15.70;52.44
53246;BME280;39569;51.090;-1.786;2024-03-25T03:38:26;99706.06;;;15.43;52.96
53246;BME280;39569;51.090;-1.786;2024-03-25T03:40:58;99701.41;;;15.73;52.79
53246;BME280;39569;51.090;-1.786;2024-03-25T03:43:25;99697.31;;;15.71;52.64
53246;BME280;39569;51.090;-1.786;2024-03-25T03:45:51;99699.31;;;15.64;52.75
53246;BME280;39569;51.090;-1.786;2024-03-25T03:48:17;99688.66;;;15.28;53.56
53246;BME280;39569;51.090;-1.786;2024-03-25T03:50:43;99684.06;;;15.58;53.28
53246;BME280;39569;51.090;-1.786;2024-03-25T03:53:11;99680.47;;;15.64;53.49
53246;BME280;39569;51.090;-1.786;2024-03-25T03:55:37;99680.06;;;15.08;54.40
53246;BME280;39569;51.090;-1.786;2024-03-25T03:58:05;99679.38;;;15.42;53.75
53246;BME280;39569;51.090;-1.786;2024-03-25T04:00:33;99668.41;;;15.55;53.91
53246;BME280;39569;51.090;-1.786;2024-03-25T04:03:00;99660.88;;;15.57;53.20
53246;BME280;39569;51.090;-1.786;2024-03-25T04:05:28;99655.75;;;15.79;53.25
53246;BME280;39569;51.090;-1.786;2024-03-25T04:07:55;99653.41;;;15.47;53.57
53246;BME280;39569;51.090;-1.786;2024-03-25T04:10:22;99646.66;;;15.38;54.14
53246;BME280;39569;51.090;-1.786;2024-03-25T04:12:49;99655.78;;;15.14;54.09
53246;BME280;39569;51.090;-1.786;2024-03-25T04:15:15;99647.97;;;15.36;53.69
53246;BME280;39569;51.090;-1.786;2024-03-25T04:17:44;99647.31;;;15.11;54.25
53246;BME280;39569;51.090;-1.786;2024-03-25T04:20:11;99637.31;;;15.29;54.09
53246;BME280;39569;51.090;-1.786;2024-03-25T04:22:41;99630.00;;;15.48;53.39
53246;BME280;39569;51.090;-1.786;2024-03-25T04:25:07;99635.53;;;15.12;54.17
53246;BME280;39569;51.090;-1.786;2024-03-25T04:27:37;99625.75;;;15.29;53.89
53246;BME280;39569;51.090;-1.786;2024-03-25T04:30:04;99622.91;;;15.12;54.20
53246;BME280;39569;51.090;-1.786;2024-03-25T04:32:32;99626.34;;;15.31;53.78
53246;BME280;39569;51.090;-1.786;2024-03-25T04:34:58;99629.34;;;14.52;56.10
53246;BME280;39569;51.090;-1.786;2024-03-25T04:37:25;99619.78;;;14.56;55.87
53246;BME280;39569;51.090;-1.786;2024-03-25T04:39:50;99617.06;;;15.15;54.73
53246;BME280;39569;51.090;-1.786;2024-03-25T04:42:16;99615.25;;;14.98;55.09
53246;BME280;39569;51.090;-1.786;2024-03-25T04:44:43;99616.03;;;14.87;55.29
53246;BME280;39569;51.090;-1.786;2024-03-25T04:47:09;99611.66;;;14.44;55.30
53246;BME280;39569;51.090;-1.786;2024-03-25T04:49:34;99593.88;;;14.61;55.24
53246;BME280;39569;51.090;-1.786;2024-03-25T04:52:00;99600.75;;;14.57;55.07
53246;BME280;39569;51.090;-1.786;2024-03-25T04:54:26;99589.22;;;15.21;53.71
53246;BME280;39569;51.090;-1.786;2024-03-25T04:56:52;99593.81;;;14.79;54.71
53246;BME280;39569;51.090;-1.786;2024-03-25T04:59:17;99589.84;;;14.82;54.29
53246;BME280;39569;51.090;-1.786;2024-03-25T05:01:44;99582.31;;;15.14;54.40
53246;BME280;39569;51.090;-1.786;2024-03-25T05:04:10;99581.44;;;14.78;54.44
53246;BME280;39569;51.090;-1.786;2024-03-25T05:06:36;99573.53;;;15.18;53.74
53246;BME280;39569;51.090;-1.786;2024-03-25T05:09:02;99566.53;;;14.35;55.84
53246;BME280;39569;51.090;-1.786;2024-03-25T05:11:28;99567.03;;;14.73;55.40
53246;BME280;39569;51.090;-1.786;2024-03-25T05:13:53;99568.41;;;14.64;55.62
53246;BME280;39569;51.090;-1.786;2024-03-25T05:16:19;99565.34;;;15.02;54.81
53246;BME280;39569;51.090;-1.786;2024-03-25T05:18:46;99555.53;;;15.19;54.18
53246;BME280;39569;51.090;-1.786;2024-03-25T05:21:12;99562.94;;;15.23;54.20
53246;BME280;39569;51.090;-1.786;2024-03-25T05:23:38;99568.06;;;14.42;55.50
53246;BME280;39569;51.090;-1.786;2024-03-25T05:26:04;99558.56;;;14.99;55.08
53246;BME280;39569;51.090;-1.786;2024-03-25T05:28:29;99557.63;;;14.94;55.00
53246;BME280;39569;51.090;-1.786;2024-03-25T05:30:55;99559.72;;;14.92;55.40
53246;BME280;39569;51.090;-1.786;2024-03-25T05:33:21;99558.56;;;14.99;55.30
53246;BME280;39569;51.090;-1.786;2024-03-25T05:35:48;99549.25;;;15.36;54.64
53246;BME280;39569;51.090;-1.786;2024-03-25T05:38:14;99549.56;;;15.17;54.74
53246;BME280;39569;51.090;-1.786;2024-03-25T05:40:39;99547.22;;;15.20;54.58
53246;BME280;39569;51.090;-1.786;2024-03-25T05:43:05;99555.13;;;14.81;55.62
53246;BME280;39569;51.090;-1.786;2024-03-25T05:45:31;99556.56;;;14.95;55.11
53246;BME280;39569;51.090;-1.786;2024-03-25T05:47:57;99550.91;;;14.73;55.72
53246;BME280;39569;51.090;-1.786;2024-03-25T05:50:22;99546.63;;;14.54;56.51
53246;BME280;39569;51.090;-1.786;2024-03-25T05:52:49;99543.69;;;14.85;55.83
53246;BME280;39569;51.090;-1.786;2024-03-25T05:55:15;99548.72;;;14.52;56.57
53246;BME280;39569;51.090;-1.786;2024-03-25T05:57:41;99545.50;;;14.32;57.25
53246;BME280;39569;51.090;-1.786;2024-03-25T06:00:08;99541.22;;;14.42;56.94
53246;BME280;39569;51.090;-1.786;2024-03-25T06:02:34;99532.34;;;14.83;56.01
53246;BME280;39569;51.090;-1.786;2024-03-25T06:04:59;99531.34;;;14.54;56.48
53246;BME280;39569;51.090;-1.786;2024-03-25T06:07:25;99523.72;;;14.51;56.95
53246;BME280;39569;51.090;-1.786;2024-03-25T06:09:52;99518.06;;;14.71;56.38
53246;BME280;39569;51.090;-1.786;2024-03-25T06:12:18;99510.94;;;14.76;55.67
53246;BME280;39569;51.090;-1.786;2024-03-25T06:14:44;99515.13;;;14.72;55.87
53246;BME280;39569;51.090;-1.786;2024-03-25T06:17:09;99508.16;;;14.95;55.36
53246;BME280;39569;51.090;-1.786;2024-03-25T06:19:35;99506.91;;;15.09;55.03
53246;BME280;39569;51.090;-1.786;2024-03-25T06:22:01;99507.75;;;14.68;56.06
53246;BME280;39569;51.090;-1.786;2024-03-25T06:24:26;99509.63;;;14.56;56.28
53246;BME280;39569;51.090;-1.786;2024-03-25T06:26:53;99510.56;;;14.61;56.63
53246;BME280;39569;51.090;-1.786;2024-03-25T06:29:19;99507.00;;;14.38;56.25
53246;BME280;39569;51.090;-1.786;2024-03-25T06:31:45;99503.59;;;14.95;55.29
53246;BME280;39569;51.090;-1.786;2024-03-25T06:34:29;99505.47;;;14.12;56.73
53246;BME280;39569;51.090;-1.786;2024-03-25T06:36:55;99507.72;;;13.97;56.88
53246;BME280;39569;51.090;-1.786;2024-03-25T06:39:20;99500.19;;;13.88;57.38
53246;BME280;39569;51.090;-1.786;2024-03-25T06:41:46;99485.91;;;14.23;56.56
53246;BME280;39569;51.090;-1.786;2024-03-25T06:44:14;99481.78;;;14.21;55.95
53246;BME280;39569;51.090;-1.786;2024-03-25T06:46:39;99481.53;;;14.40;55.94
53246;BME280;39569;51.090;-1.786;2024-03-25T06:49:05;99487.91;;;13.80;56.91
53246;BME280;39569;51.090;-1.786;2024-03-25T06:51:31;99483.97;;;13.46;57.33
53246;BME280;39569;51.090;-1.786;2024-03-25T06:53:56;99489.53;;;13.81;57.29
53246;BME280;39569;51.090;-1.786;2024-03-25T06:56:22;99480.13;;;14.38;56.00
53246;BME280;39569;51.090;-1.786;2024-03-25T06:58:48;99484.22;;;13.93;57.13
53246;BME280;39569;51.090;-1.786;2024-03-25T07:01:15;99477.75;;;14.30;56.41
53246;BME280;39569;51.090;-1.786;2024-03-25T07:03:41;99480.44;;;13.82;57.53
53246;BME280;39569;51.090;-1.786;2024-03-25T07:06:07;99466.75;;;14.49;55.83
53246;BME280;39569;51.090;-1.786;2024-03-25T07:08:32;99465.44;;;14.52;55.54
53246;BME280;39569;51.090;-1.786;2024-03-25T07:10:58;99452.91;;;14.34;56.49
53246;BME280;39569;51.090;-1.786;2024-03-25T07:13:24;99448.84;;;14.14;56.64
53246;BME280;39569;51.090;-1.786;2024-03-25T07:15:50;99457.38;;;13.93;57.49
53246;BME280;39569;51.090;-1.786;2024-03-25T07:18:17;99463.66;;;13.87;57.89
53246;BME280;39569;51.090;-1.786;2024-03-25T07:20:43;99456.78;;;14.09;57.66
53246;BME280;39569;51.090;-1.786;2024-03-25T07:23:10;99463.59;;;13.93;57.88
53246;BME280;39569;51.090;-1.786;2024-03-25T07:25:36;99447.34;;;13.70;58.08
53246;BME280;39569;51.090;-1.786;2024-03-25T07:28:01;99455.53;;;14.23;57.06
53246;BME280;39569;51.090;-1.786;2024-03-25T07:30:27;99452.47;;;13.90;57.11
53246;BME280;39569;51.090;-1.786;2024-03-25T07:32:53;99450.06;;;14.29;57.12
53246;BME280;39569;51.090;-1.786;2024-03-25T07:35:20;99449.16;;;14.06;57.60
53246;BME280;39569;51.090;-1.786;2024-03-25T07:37:46;99443.19;;;14.33;56.65
53246;BME280;39569;51.090;-1.786;2024-03-25T07:40:12;99451.75;;;14.42;56.53
53246;BME280;39569;51.090;-1.786;2024-03-25T07:42:38;99451.56;;;14.25;57.02
53246;BME280;39569;51.090;-1.786;2024-03-25T07:45:05;99446.91;;;14.62;56.02
53246;BME280;39569;51.090;-1.786;2024-03-25T07:47:31;99449.78;;;14.49;56.25
53246;BME280;39569;51.090;-1.786;2024-03-25T07:49:56;99446.97;;;14.55;56.70
53246;BME280;39569;51.090;-1.786;2024-03-25T07:52:23;99441.72;;;14.49;56.65
53246;BME280;39569;51.090;-1.786;2024-03-25T07:54:49;99437.84;;;14.45;56.69
53246;BME280;39569;51.090;-1.786;2024-03-25T07:57:15;99428.19;;;15.02;55.80
53246;BME280;39569;51.090;-1.786;2024-03-25T07:59:41;99429.50;;;14.88;55.68
53246;BME280;39569;51.090;-1.786;2024-03-25T08:02:06;99422.72;;;14.97;55.96
53246;BME280;39569;51.090;-1.786;2024-03-25T08:04:32;99422.22;;;15.00;55.75
53246;BME280;39569;51.090;-1.786;2024-03-25T08:06:58;99425.34;;;15.31;55.08
53246;BME280;39569;51.090;-1.786;2024-03-25T08:09:25;99415.50;;;15.37;55.03
53246;BME280;39569;51.090;-1.786;2024-03-25T08:11:51;99419.22;;;15.59;54.68
53246;BME280;39569;51.090;-1.786;2024-03-25T08:14:16;99420.28;;;15.69;53.91
53246;BME280;39569;51.090;-1.786;2024-03-25T08:16:42;99421.63;;;15.21;55.04
53246;BME280;39569;51.090;-1.786;2024-03-25T08:19:08;99414.19;;;14.88;56.11
53246;BME280;39569;51.090;-1.786;2024-03-25T08:21:33;99417.78;;;14.59;56.50
53246;BME280;39569;51.090;-1.786;2024-03-25T08:23:59;99409.84;;;14.87;56.24
53246;BME280;39569;51.090;-1.786;2024-03-25T08:26:26;99404.50;;;15.61;54.44
53246;BME280;39569;51.090;-1.786;2024-03-25T08:28:52;99413.09;;;15.24;55.16
53246;BME280;39569;51.090;-1.786;2024-03-25T08:31:18;99400.78;;;15.39;54.63
53246;BME280;39569;51.090;-1.786;2024-03-25T08:33:45;99400.63;;;16.14;53.37
53246;BME280;39569;51.090;-1.786;2024-03-25T08:36:10;99400.88;;;16.12;52.58
53246;BME280;39569;51.090;-1.786;2024-03-25T08:38:36;99398.63;;;15.93;53.37
53246;BME280;39569;51.090;-1.786;2024-03-25T08:41:03;99389.13;;;16.18;52.84
53246;BME280;39569;51.090;-1.786;2024-03-25T08:43:30;99391.41;;;15.82;53.44
53246;BME280;39569;51.090;-1.786;2024-03-25T08:45:55;99391.63;;;15.92;53.12
53246;BME280;39569;51.090;-1.786;2024-03-25T08:48:21;99385.69;;;15.78;53.07
53246;BME280;39569;51.090;-1.786;2024-03-25T08:50:47;99385.50;;;15.68;53.41
53246;BME280;39569;51.090;-1.786;2024-03-25T08:53:13;99374.56;;;15.86;53.31
53246;BME280;39569;51.090;-1.786;2024-03-25T08:55:44;99376.00;;;16.88;51.50
53246;BME280;39569;51.090;-1.786;2024-03-25T08:58:10;99370.13;;;16.41;51.47
53246;BME280;39569;51.090;-1.786;2024-03-25T09:00:37;99376.97;;;16.32;52.25
53246;BME280;39569;51.090;-1.786;2024-03-25T09:03:03;99368.69;;;16.50;51.89
53246;BME280;39569;51.090;-1.786;2024-03-25T09:05:29;99372.09;;;16.62;51.06
53246;BME280;39569;51.090;-1.786;2024-03-25T09:07:55;99368.13;;;16.87;51.12
53246;BME280;39569;51.090;-1.786;2024-03-25T09:10:21;99377.03;;;17.25;50.18
53246;BME280;39569;51.090;-1.786;2024-03-25T09:13:05;99361.69;;;17.47;49.35
53246;BME280;39569;51.090;-1.786;2024-03-25T09:15:30;99367.19;;;17.36;49.68
53246;BME280;39569;51.090;-1.786;2024-03-25T09:17:58;99365.53;;;17.78;49.30
53246;BME280;39569;51.090;-1.786;2024-03-25T09:20:24;99350.75;;;17.86;49.10
53246;BME280;39569;51.090;-1.786;2024-03-25T09:22:49;99360.00;;;17.68;49.61
53246;BME280;39569;51.090;-1.786;2024-03-25T09:25:15;99361.09;;;17.67;49.23
53246;BME280;39569;51.090;-1.786;2024-03-25T09:27:45;99361.91;;;17.24;49.92
53246;BME280;39569;51.090;-1.786;2024-03-25T09:30:11;99365.44;;;17.25;49.73
53246;BME280;39569;51.090;-1.786;2024-03-25T09:32:38;99359.72;;;17.21;50.08
53246;BME280;39569;51.090;-1.786;2024-03-25T09:35:05;99362.41;;;17.21;50.36
53246;BME280;39569;51.090;-1.786;2024-03-25T09:37:31;99351.69;;;17.70;49.58
53246;BME280;39569;51.090;-1.786;2024-03-25T09:39:57;99356.38;;;17.14;49.15
53246;BME280;39569;51.090;-1.786;2024-03-25T09:42:25;99352.56;;;17.53;49.73
53246;BME280;39569;51.090;-1.786;2024-03-25T09:44:53;99346.28;;;17.70;49.56
53246;BME280;39569;51.090;-1.786;2024-03-25T09:47:19;99342.59;;;17.32;50.44
53246;BME280;39569;51.090;-1.786;2024-03-25T09:49:45;99336.53;;;17.25;50.05
53246;BME280;39569;51.090;-1.786;2024-03-25T09:52:13;99330.78;;;17.60;48.95
53246;BME280;39569;51.090;-1.786;2024-03-25T09:54:39;99319.09;;;18.08;49.13
53246;BME280;39569;51.090;-1.786;2024-03-25T09:57:06;99315.31;;;18.82;47.08
53246;BME280;39569;51.090;-1.786;2024-03-25T09:59:32;99308.88;;;18.88;47.10
53246;BME280;39569;51.090;-1.786;2024-03-25T10:01:58;99300.34;;;18.64;47.62
53246;BME280;39569;51.090;-1.786;2024-03-25T10:04:24;99309.72;;;18.52;47.19
53246;BME280;39569;51.090;-1.786;2024-03-25T10:06:50;99298.69;;;19.10;46.46
53246;BME280;39569;51.090;-1.786;2024-03-25T10:09:20;99304.16;;;18.69;47.47
53246;BME280;39569;51.090;-1.786;2024-03-25T10:11:47;99299.78;;;18.31;47.53
53246;BME280;39569;51.090;-1.786;2024-03-25T10:14:13;99291.66;;;19.14;46.05
53246;BME280;39569;51.090;-1.786;2024-03-25T10:16:38;99293.78;;;18.55;45.36
53246;BME280;39569;51.090;-1.786;2024-03-25T10:19:04;99286.19;;;18.47;46.83
53246;BME280;39569;51.090;-1.786;2024-03-25T10:21:30;99293.03;;;18.60;45.37
53246;BME280;39569;51.090;-1.786;2024-03-25T10:23:56;99283.19;;;19.78;43.88
53246;BME280;39569;51.090;-1.786;2024-03-25T10:26:30;99282.94;;;19.99;43.09
53246;BME280;39569;51.090;-1.786;2024-03-25T10:29:00;99281.47;;;19.36;43.36
53246;BME280;39569;51.090;-1.786;2024-03-25T10:31:26;99281.25;;;19.58;42.77
53246;BME280;39569;51.090;-1.786;2024-03-25T10:33:53;99281.56;;;20.42;41.09
53246;BME280;39569;51.090;-1.786;2024-03-25T10:36:20;99263.41;;;19.92;41.60
53246;BME280;39569;51.090;-1.786;2024-03-25T10:38:48;99265.22;;;20.77;40.79
53246;BME280;39569;51.090;-1.786;2024-03-25T10:41:17;99248.56;;;22.54;37.50
53246;BME280;39569;51.090;-1.786;2024-03-25T10:43:46;99244.69;;;22.65;37.48
53246;BME280;39569;51.090;-1.786;2024-03-25T10:46:16;99229.13;;;22.41;37.09
53246;BME280;39569;51.090;-1.786;2024-03-25T10:48:45;99224.84;;;22.83;37.68
53246;BME280;39569;51.090;-1.786;2024-03-25T10:51:13;99219.09;;;23.08;36.84
53246;BME280;39569;51.090;-1.786;2024-03-25T10:53:41;99217.47;;;23.25;33.90
53246;BME280;39569;51.090;-1.786;2024-03-25T10:56:07;99211.84;;;22.80;35.50
53246;BME280;39569;51.090;-1.786;2024-03-25T10:58:33;99213.81;;;21.88;36.18
53246;BME280;39569;51.090;-1.786;2024-03-25T11:01:01;99203.78;;;21.01;38.65
53246;BME280;39569;51.090;-1.786;2024-03-25T11:03:28;99206.47;;;21.11;38.92
53246;BME280;39569;51.090;-1.786;2024-03-25T11:05:54;99205.31;;;20.53;38.66
53246;BME280;39569;51.090;-1.786;2024-03-25T11:08:20;99200.63;;;20.74;38.48
53246;BME280;39569;51.090;-1.786;2024-03-25T11:10:46;99194.81;;;22.17;37.69
53246;BME280;39569;51.090;-1.786;2024-03-25T11:13:13;99178.47;;;21.93;35.97
53246;BME280;39569;51.090;-1.786;2024-03-25T11:15:40;99187.03;;;21.72;36.86
53246;BME280;39569;51.090;-1.786;2024-03-25T11:18:12;99179.66;;;21.38;38.69
53246;BME280;39569;51.090;-1.786;2024-03-25T11:20:38;99172.53;;;22.38;35.88
53246;BME280;39569;51.090;-1.786;2024-03-25T11:23:08;99169.34;;;21.74;37.66
53246;BME280;39569;51.090;-1.786;2024-03-25T11:25:34;99161.47;;;23.01;34.99
53246;BME280;39569;51.090;-1.786;2024-03-25T11:28:00;99172.75;;;23.31;34.48
53246;BME280;39569;51.090;-1.786;2024-03-25T11:30:26;99180.31;;;21.98;34.83
53246;BME280;39569;51.090;-1.786;2024-03-25T11:32:53;99179.94;;;20.93;36.89
53246;BME280;39569;51.090;-1.786;2024-03-25T11:35:21;99167.94;;;22.86;34.45
53246;BME280;39569;51.090;-1.786;2024-03-25T11:37:47;99172.66;;;23.55;33.13
53246;BME280;39569;51.090;-1.786;2024-03-25T11:40:14;99164.19;;;23.57;32.92
53246;BME280;39569;51.090;-1.786;2024-03-25T11:42:40;99175.44;;;23.69;32.63
53246;BME280;39569;51.090;-1.786;2024-03-25T11:45:07;99162.44;;;24.11;31.60
53246;BME280;39569;51.090;-1.786;2024-03-25T11:47:33;99159.00;;;22.99;32.74
53246;BME280;39569;51.090;-1.786;2024-03-25T11:49:59;99156.13;;;23.97;31.62
53246;BME280;39569;51.090;-1.786;2024-03-25T11:52:31;99142.66;;;25.23;29.37
53246;BME280;39569;51.090;-1.786;2024-03-25T11:54:57;99145.09;;;24.75;30.03
53246;BME280;39569;51.090;-1.786;2024-03-25T11:57:23;99155.97;;;22.11;32.94
53246;BME280;39569;51.090;-1.786;2024-03-25T11:59:49;99138.09;;;22.53;32.48
53246;BME280;39569;51.090;-1.786;2024-03-25T12:02:15;99131.53;;;21.78;35.22
53246;BME280;39569;51.090;-1.786;2024-03-25T12:04:45;99128.34;;;20.93;37.50
53246;BME280;39569;51.090;-1.786;2024-03-25T12:07:12;99127.69;;;20.68;37.37
53246;BME280;39569;51.090;-1.786;2024-03-25T12:09:39;99119.06;;;22.95;35.57
53246;BME280;39569;51.090;-1.786;2024-03-25T12:12:24;99114.22;;;21.69;33.84
53246;BME280;39569;51.090;-1.786;2024-03-25T12:14:50;99114.75;;;20.98;34.70
53246;BME280;39569;51.090;-1.786;2024-03-25T12:17:17;99101.53;;;21.30;36.19
53246;BME280;39569;51.090;-1.786;2024-03-25T12:19:42;99098.25;;;22.19;33.79
53246;BME280;39569;51.090;-1.786;2024-03-25T12:22:08;99097.47;;;20.84;34.88
53246;BME280;39569;51.090;-1.786;2024-03-25T12:24:34;99096.09;;;20.38;36.66
53246;BME280;39569;51.090;-1.786;2024-03-25T12:27:01;99081.09;;;21.38;34.19
53246;BME280;39569;51.090;-1.786;2024-03-25T12:29:28;99076.59;;;22.52;32.39
53246;BME280;39569;51.090;-1.786;2024-03-25T12:31:54;99082.59;;;21.78;33.23
53246;BME280;39569;51.090;-1.786;2024-03-25T12:34:20;99080.84;;;23.96;30.71
53246;BME280;39569;51.090;-1.786;2024-03-25T12:36:46;99086.84;;;23.66;29.49
53246;BME280;39569;51.090;-1.786;2024-03-25T12:39:15;99078.72;;;21.60;32.95
53246;BME280;39569;51.090;-1.786;2024-03-25T12:41:41;99070.00;;;24.10;28.93
53246;BME280;39569;51.090;-1.786;2024-03-25T12:44:08;99066.66;;;24.89;28.33
53246;BME280;39569;51.090;-1.786;2024-03-25T12:46:34;99063.75;;;23.64;29.23